This is the latest recevied weather packets stored in our database for station/object PY4QS. If no packets are shown the sender has not sent any weather packets the latest 10 day(s).
| Time | Temp. | Humidity | Pressure | Rain* | Wind** | Luminosity | Snow |
|---|---|---|---|---|---|---|---|
| 1777914427 | 25° C | 51% | 1022.9 hPa | - | - | - | - |
| 1777914120 | 25° C | 51% | 1022.9 hPa | - | - | - | - |
| 1777910755 | 23.89° C | 53% | 1023.6 hPa | - | - | - | - |
| 1777910449 | 23.89° C | 53% | 1023.6 hPa | - | - | - | - |
| 1777910141 | 23.89° C | 52% | 1023.7 hPa | - | - | - | - |
| 1777909223 | 23.89° C | 52% | 1023.9 hPa | - | - | - | - |
| 1777908002 | 24.44° C | 51% | 1023.9 hPa | - | - | - | - |
| 1777904938 | 23.89° C | 51% | 1024.5 hPa | - | - | - | - |
| 1777897588 | 21.11° C | 58% | 1025.4 hPa | - | - | - | - |
| 1777896670 | 20.56° C | 60% | 1025.3 hPa | - | - | - | - |
| 1777896058 | 20.56° C | 60% | 1025.4 hPa | - | - | - | - |
| 1777891778 | 17.78° C | 67% | 1024.6 hPa | - | - | - | - |
| 1777891471 | 17.78° C | 67% | 1024.6 hPa | - | - | - | - |
| 1777890549 | 17.78° C | 67% | 1024.4 hPa | - | - | - | - |
| 1777887801 | 15° C | 76% | 1023.8 hPa | - | - | - | - |
| 1777887187 | 15° C | 77% | 1023.7 hPa | - | - | - | - |
| 1777886881 | 14.44° C | 77% | 1023.5 hPa | - | - | - | - |
| 1777886576 | 14.44° C | 77% | 1023.5 hPa | - | - | - | - |
| 1777885044 | 14.44° C | 77% | 1023.3 hPa | - | - | - | - |
| 1777884127 | 14.44° C | 78% | 1023.2 hPa | - | - | - | - |
| 1777880769 | 13.89° C | 80% | 1023.3 hPa | - | - | - | - |
| 1777879854 | 14.44° C | 79% | 1023.4 hPa | - | - | - | - |
| 1777877407 | 15° C | 77% | 1023.6 hPa | - | - | - | - |
| 1777876186 | 15° C | 76% | 1023.6 hPa | - | - | - | - |
| 1777869465 | 15.56° C | 74% | 1023.6 hPa | - | - | - | - |
* Rain since midnight (hover to see other rain measurements)
** Current wind speed in m/s (hover to see current wind gust speed)